MUCF/CFG METAR and TAF weather

Enter ICAO airport designator
Station Type Date Time Source
MUCF METAR 2021/08/02 00:59 UTC NOAA

MUCF 020059Z AUTO 10006KT 040V160 25/22 Q1019


Station Type Date Time Source
MUCF Decoded METAR 2021/08/02 00:59 UTC NOAA

Cienfuegos, Las Villas, Cuba (MUCF) 22-09N 080-24W 39M
Aug 01, 2021 - 08:59 PM EDT / 2021.08.02 0059 UTC
Wind: from the E (100 degrees) at 7 MPH (6 KT) (direction variable):0
Temperature: 77 F (25 C)
Dew Point: 71 F (22 C)
Relative Humidity: 83%
Pressure (altimeter): 30.09 in. Hg (1019 hPa)
ob: MUCF 020059Z AUTO 10006KT 040V160 25/22 Q1019
cycle: 1

Station Type Date Time Source
MUCF TAF 2021/08/01 18:03 UTC NOAA

MUCF 011700Z 0118/0206 19010KT 9000 SCT020
TEMPO 0118/0124 VRB10KT 3000 TSRA SCT018CB BKN020
BECMG 0201/0203 VRB03KT

Example: see airport list